Time;durP1;ratioP1;P1;durP2;ratioP2;P2;SDS_P1;SDS_P2;PMS_P1;PMS_P2;Temp;Humidity;BMP_temperature;BMP_pressure;BME280_temperature;BME280_humidity;BME280_pressure;Samples;Min_cycle;Max_cycle;Signal;HPM_P1;HPM_P2
2022/10/01 00:02:22;;;;;;;8.52;7.07;;;;;;;11.21;100.00;98577.66;5101915;28;20035;-57
2022/10/01 00:05:09;;;;;;;7.68;6.22;;;;;;;11.21;100.00;98577.66;5090065;28;20059;-57
2022/10/01 00:07:54;;;;;;;8.20;6.40;;;;;;;11.26;100.00;98571.25;5099922;28;20042;-56
2022/10/01 00:10:42;;;;;;;9.27;7.22;;;;;;;11.25;100.00;98565.16;5093276;28;20036;-56
2022/10/01 00:13:29;;;;;;;8.32;6.50;;;;;;;11.20;100.00;98565.50;5098703;28;20097;-56
2022/10/01 00:16:18;;;;;;;9.73;7.00;;;;;;;11.24;100.00;98571.38;5096879;28;20048;-56
2022/10/01 00:19:02;;;;;;;9.90;7.53;;;;;;;11.25;100.00;98575.66;5093127;28;20043;-56
2022/10/01 00:21:47;;;;;;;8.68;6.70;;;;;;;11.25;100.00;98577.44;5097449;28;20040;-58
2022/10/01 00:24:33;;;;;;;8.55;6.97;;;;;;;11.28;100.00;98569.34;5093865;28;20387;-56
2022/10/01 00:27:17;;;;;;;9.85;7.35;;;;;;;11.29;100.00;98563.97;5099800;28;20538;-57
2022/10/01 00:30:05;;;;;;;8.95;7.10;;;;;;;11.28;100.00;98558.84;5102369;28;20391;-56
2022/10/01 00:32:52;;;;;;;8.45;6.35;;;;;;;11.32;100.00;98560.31;5098030;28;20035;-55
2022/10/01 00:35:37;;;;;;;8.93;6.85;;;;;;;11.33;100.00;98561.97;5100242;28;20093;-62
2022/10/01 00:38:22;;;;;;;9.75;7.55;;;;;;;11.33;100.00;98570.69;5094228;28;20046;-52
2022/10/01 00:41:08;;;;;;;9.35;7.45;;;;;;;11.33;100.00;98554.09;5092730;28;20036;-56
2022/10/01 00:43:57;;;;;;;9.95;7.35;;;;;;;11.29;100.00;98557.91;5091990;28;20548;-57
2022/10/01 00:46:44;;;;;;;8.38;5.97;;;;;;;11.36;100.00;98560.91;5101991;28;20044;-55
2022/10/01 00:49:32;;;;;;;9.05;6.80;;;;;;;11.38;100.00;98564.22;5092560;28;20429;-58
2022/10/01 00:52:23;;;;;;;9.88;7.32;;;;;;;11.37;100.00;98563.41;5092688;28;20054;-62
2022/10/01 00:55:17;;;;;;;9.43;7.32;;;;;;;11.32;100.00;98555.91;5092493;28;20114;-55
2022/10/01 00:58:03;;;;;;;8.30;6.20;;;;;;;11.37;100.00;98558.19;5100015;28;20062;-56
2022/10/01 01:00:50;;;;;;;7.95;6.65;;;;;;;11.38;100.00;98551.97;5100894;28;20130;-53
2022/10/01 01:03:34;;;;;;;9.60;7.10;;;;;;;11.30;100.00;98544.69;5094005;28;20074;-55
2022/10/01 01:06:19;;;;;;;10.27;7.38;;;;;;;11.27;100.00;98525.72;5092605;28;20032;-56
2022/10/01 01:09:03;;;;;;;9.55;7.18;;;;;;;11.29;100.00;98516.78;5093566;28;20048;-55
2022/10/01 01:12:00;;;;;;;10.02;6.85;;;;;;;11.26;100.00;98530.13;5089610;28;20539;-55
2022/10/01 01:15:18;;;;;;;11.48;8.30;;;;;;;11.24;100.00;98518.09;5096661;28;20031;-54
2022/10/01 01:18:14;;;;;;;10.23;7.93;;;;;;;11.23;100.00;98534.78;5090764;28;20435;-56
2022/10/01 01:21:11;;;;;;;12.25;8.93;;;;;;;11.15;100.00;98528.31;5090792;28;20039;-58
2022/10/01 01:24:33;;;;;;;10.77;8.02;;;;;;;11.21;100.00;98533.09;5098047;28;20144;-56
2022/10/01 01:27:36;;;;;;;13.25;9.13;;;;;;;11.20;100.00;98536.66;5092680;28;20032;-56
2022/10/01 01:30:21;;;;;;;12.00;8.70;;;;;;;11.23;100.00;98532.16;5091503;28;20082;-53
2022/10/01 01:33:11;;;;;;;11.25;8.05;;;;;;;11.26;100.00;98532.72;5088908;28;20040;-56
2022/10/01 01:36:04;;;;;;;10.23;7.38;;;;;;;11.27;100.00;98533.59;5103249;28;20066;-56
2022/10/01 01:38:53;;;;;;;10.05;7.30;;;;;;;11.26;100.00;98526.69;5093982;28;20048;-56
2022/10/01 01:41:48;;;;;;;9.23;7.13;;;;;;;11.29;100.00;98535.13;5099520;28;20069;-58
2022/10/01 01:44:38;;;;;;;9.90;7.03;;;;;;;11.31;100.00;98535.84;5101541;28;20044;-58
2022/10/01 01:47:27;;;;;;;11.43;8.00;;;;;;;11.24;100.00;98536.44;5091345;28;20110;-58
2022/10/01 01:50:15;;;;;;;12.05;8.65;;;;;;;11.18;100.00;98543.00;5102396;28;20047;-56
2022/10/01 01:52:59;;;;;;;10.63;7.32;;;;;;;11.19;100.00;98542.88;5097940;28;20048;-57
2022/10/01 01:55:48;;;;;;;12.55;9.18;;;;;;;11.15;100.00;98540.56;5103498;28;20087;-57
2022/10/01 01:58:34;;;;;;;13.35;9.05;;;;;;;11.18;100.00;98543.00;5104334;28;20074;-56
2022/10/01 02:01:38;;;;;;;11.18;8.43;;;;;;;11.22;100.00;98552.28;5094779;28;20111;-58
2022/10/01 02:04:48;;;;;;;11.95;8.07;;;;;;;11.29;100.00;98557.91;5096965;28;20047;-53
2022/10/01 02:08:27;;;;;;;11.68;7.72;;;;;;;11.27;100.00;98547.53;5087332;28;20078;-54
2022/10/01 02:11:47;;;;;;;10.40;7.57;;;;;;;11.25;100.00;98538.94;5017988;28;20053;-57
2022/10/01 02:15:04;;;;;;;10.70;7.78;;;;;;;11.27;100.00;98536.19;5012454;28;20092;-56
2022/10/01 02:18:19;;;;;;;10.23;7.63;;;;;;;11.23;100.00;98545.25;4951753;28;20065;-55
2022/10/01 02:21:18;;;;;;;9.07;6.82;;;;;;;11.25;100.00;98554.69;4925665;29;20063;-57
2022/10/01 02:24:38;;;;;;;12.20;8.57;;;;;;;11.23;100.00;98542.66;4904630;29;20852;-56
2022/10/01 02:27:31;;;;;;;11.27;8.80;;;;;;;11.14;100.00;98539.75;4932739;29;20050;-58
2022/10/01 02:30:17;;;;;;;11.43;8.35;;;;;;;11.13;100.00;98545.94;4930973;29;20047;-56
2022/10/01 02:33:03;;;;;;;11.35;8.68;;;;;;;11.19;100.00;98549.91;4924988;29;20044;-59
2022/10/01 02:35:51;;;;;;;15.02;10.05;;;;;;;11.15;100.00;98551.91;4931162;29;20059;-56
2022/10/01 02:38:38;;;;;;;13.30;8.93;;;;;;;11.15;100.00;98548.44;4931085;29;20056;-57
2022/10/01 02:41:28;;;;;;;11.38;8.02;;;;;;;11.15;100.00;98545.81;4930882;29;20063;-57
2022/10/01 02:44:20;;;;;;;12.07;8.82;;;;;;;11.14;100.00;98549.41;4944152;28;20057;-59
2022/10/01 02:47:16;;;;;;;12.35;9.32;;;;;;;11.14;100.00;98554.63;5023797;28;20088;-59
2022/10/01 02:50:03;;;;;;;13.90;9.45;;;;;;;11.15;100.00;98553.69;5008384;28;20388;-57
2022/10/01 02:52:54;;;;;;;14.00;9.40;;;;;;;11.18;100.00;98561.34;5024851;28;20152;-59
2022/10/01 02:55:41;;;;;;;17.63;9.68;;;;;;;11.15;100.00;98551.06;5024501;28;20080;-58
2022/10/01 02:58:25;;;;;;;14.77;9.02;;;;;;;11.13;100.00;98553.78;5077025;28;20068;-56
2022/10/01 03:01:10;;;;;;;13.70;9.55;;;;;;;11.14;100.00;98552.88;5094260;28;20447;-56
2022/10/01 03:03:55;;;;;;;12.95;8.70;;;;;;;11.12;100.00;98548.66;5092407;28;20123;-58
2022/10/01 03:06:40;;;;;;;11.82;9.27;;;;;;;11.13;100.00;98551.16;5098422;28;20171;-55
2022/10/01 03:09:25;;;;;;;12.77;9.82;;;;;;;11.18;100.00;98556.91;5093160;28;20646;-55
2022/10/01 03:12:10;;;;;;;12.18;9.07;;;;;;;11.14;100.00;98554.63;5090148;28;20040;-57
2022/10/01 03:14:55;;;;;;;10.00;7.70;;;;;;;11.20;100.00;98562.88;5099137;28;20027;-56
2022/10/01 03:17:40;;;;;;;12.02;8.95;;;;;;;11.20;100.00;98560.25;5097546;28;20066;-55
2022/10/01 03:20:25;;;;;;;14.45;8.93;;;;;;;11.21;100.00;98561.94;5095427;28;20036;-56
2022/10/01 03:23:10;;;;;;;11.43;8.57;;;;;;;11.26;100.00;98558.97;5093094;28;20032;-55
2022/10/01 03:25:54;;;;;;;11.32;8.60;;;;;;;11.29;100.00;98561.34;5094829;28;20036;-54
2022/10/01 03:28:39;;;;;;;12.88;9.02;;;;;;;11.28;100.00;98550.97;5093866;28;20561;-56
2022/10/01 03:31:23;;;;;;;10.32;7.70;;;;;;;11.24;100.00;98550.41;5092292;28;20067;-54
2022/10/01 03:34:08;;;;;;;11.52;8.07;;;;;;;11.24;100.00;98544.31;5094889;28;20032;-55
2022/10/01 03:36:53;;;;;;;11.82;8.60;;;;;;;11.18;100.00;98541.19;5095110;28;20086;-56
2022/10/01 03:39:38;;;;;;;13.27;8.88;;;;;;;11.19;100.00;98540.25;5096947;28;20040;-53
2022/10/01 03:42:22;;;;;;;12.70;9.10;;;;;;;11.25;100.00;98545.97;5093403;28;20113;-57
2022/10/01 03:45:07;;;;;;;13.13;9.77;;;;;;;11.21;100.00;98559.31;5095521;28;20506;-56
2022/10/01 03:47:52;;;;;;;10.57;7.47;;;;;;;11.23;100.00;98553.13;5111430;28;20040;-58
2022/10/01 03:50:37;;;;;;;10.95;8.20;;;;;;;11.26;100.00;98543.22;5096980;28;20433;-57
2022/10/01 03:53:22;;;;;;;11.50;8.48;;;;;;;11.21;100.00;98548.81;5092567;28;20125;-58
2022/10/01 03:56:07;;;;;;;13.82;9.30;;;;;;;11.18;100.00;98556.91;5093395;28;20358;-56
2022/10/01 03:58:52;;;;;;;12.25;7.93;;;;;;;11.17;100.00;98552.63;5093050;28;20040;-54
2022/10/01 04:01:38;;;;;;;14.40;10.07;;;;;;;11.15;100.00;98546.66;5097522;28;20043;-57
2022/10/01 04:04:23;;;;;;;13.15;8.60;;;;;;;11.14;100.00;98537.13;5095111;28;20413;-56
2022/10/01 04:07:07;;;;;;;12.63;8.57;;;;;;;11.06;100.00;98519.38;5104587;28;20055;-55
2022/10/01 04:09:52;;;;;;;12.20;8.25;;;;;;;11.06;100.00;98529.84;5099250;28;20063;-58
2022/10/01 04:12:37;;;;;;;12.43;9.00;;;;;;;11.11;100.00;98533.91;5093171;28;20036;-58
2022/10/01 04:15:22;;;;;;;15.07;8.27;;;;;;;11.14;100.00;98534.50;5096802;28;20157;-54
2022/10/01 04:18:07;;;;;;;13.70;9.50;;;;;;;11.12;100.00;98530.31;5102514;28;20051;-56
2022/10/01 04:20:51;;;;;;;13.63;9.68;;;;;;;11.06;100.00;98537.72;5101808;28;20032;-56
2022/10/01 04:23:35;;;;;;;13.10;8.70;;;;;;;11.07;100.00;98536.75;5105784;28;20036;-55
2022/10/01 04:26:20;;;;;;;12.23;8.38;;;;;;;11.11;100.00;98542.59;5094591;28;20497;-55
2022/10/01 04:29:05;;;;;;;10.85;7.60;;;;;;;11.16;100.00;98548.31;5108206;28;20070;-55
2022/10/01 04:31:52;;;;;;;11.48;7.45;;;;;;;11.24;100.00;98553.00;5092308;28;20035;-58
2022/10/01 04:34:51;;;;;;;12.38;7.43;;;;;;;11.28;100.00;98553.59;5095461;28;20047;-56
2022/10/01 04:37:36;;;;;;;9.77;7.32;;;;;;;11.27;100.00;98557.19;5114731;27;20052;-57
2022/10/01 04:40:21;;;;;;;11.80;7.78;;;;;;;11.26;100.00;98550.28;5090757;28;20040;-58
2022/10/01 04:43:09;;;;;;;7.90;5.63;;;;;;;11.25;100.00;98559.06;5094716;28;20086;-59
2022/10/01 04:45:53;;;;;;;11.75;8.10;;;;;;;11.37;100.00;98559.94;5111470;27;20051;-56
2022/10/01 04:48:40;;;;;;;10.77;7.63;;;;;;;11.36;100.00;98563.53;5077187;28;20172;-58
2022/10/01 04:51:24;;;;;;;9.57;7.18;;;;;;;11.35;100.00;98565.31;5108100;28;20092;-57
2022/10/01 04:54:09;;;;;;;8.73;6.38;;;;;;;11.39;100.00;98553.63;5091852;28;20427;-56
2022/10/01 04:56:55;;;;;;;11.95;7.82;;;;;;;11.36;100.00;98548.63;5099733;28;20128;-56
2022/10/01 04:59:39;;;;;;;11.48;8.13;;;;;;;11.36;100.00;98546.00;5103546;28;20521;-55
2022/10/01 05:02:24;;;;;;;10.13;6.95;;;;;;;11.38;100.00;98546.72;5097147;28;20048;-55
2022/10/01 05:05:09;;;;;;;10.75;7.30;;;;;;;11.41;100.00;98551.72;5096743;28;20036;-58
2022/10/01 05:07:54;;;;;;;9.45;6.28;;;;;;;11.46;100.00;98567.97;5099823;28;20044;-54
2022/10/01 05:10:39;;;;;;;8.02;5.57;;;;;;;11.56;100.00;98570.72;5077805;28;20051;-56
2022/10/01 05:13:30;;;;;;;6.25;4.55;;;;;;;11.53;100.00;98575.38;5104159;28;20035;-59
2022/10/01 05:16:15;;;;;;;4.97;3.75;;;;;;;11.51;100.00;98578.09;5096527;28;20063;-55
2022/10/01 05:18:59;;;;;;;7.28;4.53;;;;;;;11.55;100.00;98571.69;5092508;28;20063;-53
2022/10/01 05:21:45;;;;;;;8.57;6.50;;;;;;;11.67;100.00;98564.66;5096875;28;20051;-55
2022/10/01 05:24:29;;;;;;;11.35;7.80;;;;;;;11.63;100.00;98571.09;5095256;28;20082;-55
2022/10/01 05:27:14;;;;;;;12.93;7.25;;;;;;;11.53;100.00;98572.75;5094724;28;20138;-54
2022/10/01 05:29:58;;;;;;;7.80;5.13;;;;;;;11.53;100.00;98578.84;5079517;28;20032;-55
2022/10/01 05:32:53;;;;;;;7.70;5.10;;;;;;;11.57;100.00;98577.63;5100807;28;20051;-57
2022/10/01 05:35:40;;;;;;;9.98;6.43;;;;;;;11.65;100.00;98584.09;5099192;28;20039;-53
2022/10/01 05:38:25;;;;;;;11.38;7.53;;;;;;;11.64;100.00;98585.03;5112086;27;20126;-53
2022/10/01 05:41:09;;;;;;;13.55;7.63;;;;;;;11.62;100.00;98584.34;5082957;28;20039;-59
2022/10/01 05:43:54;;;;;;;6.30;4.53;;;;;;;11.59;100.00;98593.25;5104523;28;20039;-54
2022/10/01 05:46:40;;;;;;;10.10;7.00;;;;;;;11.61;100.00;98598.38;5096130;28;20035;-55
2022/10/01 05:49:25;;;;;;;7.38;4.57;;;;;;;11.63;100.00;98592.09;5097781;28;20040;-57
2022/10/01 05:52:11;;;;;;;10.57;7.10;;;;;;;11.66;100.00;98586.59;5099592;28;20043;-54
2022/10/01 05:54:56;;;;;;;13.10;8.57;;;;;;;11.69;100.00;98580.28;5093962;28;20071;-53
2022/10/01 05:57:40;;;;;;;8.52;5.57;;;;;;;11.70;100.00;98576.72;5101401;28;20039;-55
2022/10/01 06:00:29;;;;;;;11.43;7.60;;;;;;;11.61;100.00;98583.50;5092525;28;20047;-56
2022/10/01 06:03:14;;;;;;;14.25;9.65;;;;;;;11.54;100.00;98584.91;5100789;28;20036;-55
2022/10/01 06:05:59;;;;;;;10.85;7.47;;;;;;;11.51;100.00;98585.13;5105408;28;20107;-56
2022/10/01 06:08:45;;;;;;;15.57;9.85;;;;;;;11.57;100.00;98595.19;5093470;28;20105;-56
2022/10/01 06:11:30;;;;;;;16.42;10.57;;;;;;;11.64;100.00;98588.50;5094117;28;20047;-55
2022/10/01 06:14:15;;;;;;;7.65;5.20;;;;;;;11.60;100.00;98601.97;5093643;28;20032;-55
2022/10/01 06:17:00;;;;;;;10.75;6.63;;;;;;;11.63;100.00;98591.25;5100868;28;20054;-58
2022/10/01 06:19:44;;;;;;;15.70;10.18;;;;;;;11.65;100.00;98587.53;5099752;28;20035;-55
2022/10/01 06:22:29;;;;;;;20.95;11.57;;;;;;;11.55;100.00;98587.44;5098734;28;20032;-56
2022/10/01 06:25:14;;;;;;;15.20;9.60;;;;;;;11.47;100.00;98581.94;5097935;28;20048;-56
2022/10/01 06:27:59;;;;;;;13.73;8.98;;;;;;;11.51;100.00;98593.00;5092890;28;20138;-55
2022/10/01 06:30:44;;;;;;;13.95;9.70;;;;;;;11.61;100.00;98593.16;5101826;28;20040;-57
2022/10/01 06:33:29;;;;;;;14.90;9.98;;;;;;;11.76;100.00;98588.53;5090289;28;20402;-59
2022/10/01 06:36:14;;;;;;;12.98;8.40;;;;;;;11.75;100.00;98592.13;5104471;28;20044;-57
2022/10/01 06:38:59;;;;;;;10.13;7.18;;;;;;;12.00;100.00;98592.84;5092389;28;20043;-56
2022/10/01 06:41:43;;;;;;;12.18;7.95;;;;;;;11.99;100.00;98591.16;5099875;28;20040;-56
2022/10/01 06:44:33;;;;;;;10.77;7.00;;;;;;;12.04;100.00;98589.88;5094793;28;20052;-56
2022/10/01 06:47:17;;;;;;;16.90;10.20;;;;;;;11.97;100.00;98587.81;5090917;28;20102;-58
2022/10/01 06:50:02;;;;;;;14.73;10.13;;;;;;;11.96;100.00;98581.75;5105056;28;20078;-58
2022/10/01 06:52:49;;;;;;;21.65;12.23;;;;;;;11.87;100.00;98564.06;5101132;28;20122;-59
2022/10/01 06:55:35;;;;;;;15.82;9.52;;;;;;;11.93;100.00;98569.69;5095324;28;20050;-56
2022/10/01 06:58:22;;;;;;;16.30;11.05;;;;;;;11.90;100.00;98572.56;5098179;28;20078;-56
2022/10/01 07:01:06;;;;;;;18.05;11.98;;;;;;;12.00;100.00;98570.06;5099551;28;20119;-57
2022/10/01 07:03:52;;;;;;;13.77;8.57;;;;;;;12.07;100.00;98562.53;5101212;28;20036;-56
2022/10/01 07:06:37;;;;;;;16.05;10.77;;;;;;;12.29;100.00;98563.50;5068714;28;20056;-56
2022/10/01 07:09:25;;;;;;;17.08;11.15;;;;;;;12.42;100.00;98560.75;5100098;28;20119;-57
2022/10/01 07:12:10;;;;;;;12.02;7.13;;;;;;;12.73;100.00;98560.06;5099066;28;20128;-58
2022/10/01 07:14:54;;;;;;;15.77;10.77;;;;;;;12.53;100.00;98555.44;5094008;28;20066;-56
2022/10/01 07:17:44;;;;;;;15.07;10.75;;;;;;;12.71;100.00;98552.31;5093192;28;20597;-56
2022/10/01 07:20:34;;;;;;;13.23;9.17;;;;;;;12.81;100.00;98555.03;5092467;28;20036;-54
2022/10/01 07:23:19;;;;;;;16.27;10.13;;;;;;;12.85;100.00;98548.56;5097253;28;20287;-57
2022/10/01 07:26:04;;;;;;;14.20;8.65;;;;;;;12.89;100.00;98547.31;5094759;28;20044;-56
2022/10/01 07:28:49;;;;;;;18.02;10.98;;;;;;;12.85;100.00;98560.84;5094730;28;20105;-59
2022/10/01 07:31:34;;;;;;;13.07;9.35;;;;;;;12.94;100.00;98555.69;5105144;28;20406;-56
2022/10/01 07:34:18;;;;;;;11.80;8.45;;;;;;;13.26;100.00;98538.22;5106325;28;20075;-57
2022/10/01 07:37:03;;;;;;;14.05;9.13;;;;;;;13.63;100.00;98549.25;5095548;28;20131;-58
2022/10/01 07:39:47;;;;;;;16.42;9.75;;;;;;;13.57;100.00;98545.34;5100105;28;20055;-59
2022/10/01 07:42:32;;;;;;;10.38;6.75;;;;;;;13.55;100.00;98544.63;5107085;27;20043;-57
2022/10/01 07:45:17;;;;;;;6.47;4.35;;;;;;;13.82;100.00;98547.69;5096481;28;20057;-58
2022/10/01 07:48:03;;;;;;;13.57;9.02;;;;;;;14.08;100.00;98552.50;5096525;28;20044;-57
2022/10/01 07:50:47;;;;;;;8.93;5.90;;;;;;;14.32;100.00;98548.69;5097634;28;20143;-59
2022/10/01 07:53:32;;;;;;;11.23;7.32;;;;;;;14.82;100.00;98542.53;5092991;28;20060;-57
2022/10/01 07:56:16;;;;;;;12.07;8.02;;;;;;;15.03;99.61;98538.97;5093341;28;20039;-58
2022/10/01 07:59:01;;;;;;;9.27;6.75;;;;;;;15.31;97.67;98539.06;5102027;28;20039;-59
2022/10/01 08:01:50;;;;;;;6.82;4.90;;;;;;;15.49;97.28;98548.88;5094154;28;20115;-56
2022/10/01 08:07:38;;;;;;;10.95;7.43;;;;;;;14.65;100.00;98539.63;5097243;28;20417;-53
2022/10/01 08:10:22;;;;;;;11.13;7.15;;;;;;;14.85;100.00;98539.63;5096726;28;20063;-59
2022/10/01 08:13:13;;;;;;;9.55;7.05;;;;;;;14.87;100.00;98548.25;5095946;28;20079;-58
2022/10/01 08:15:57;;;;;;;14.18;8.88;;;;;;;14.95;100.00;98558.09;5091880;28;20040;-57
2022/10/01 08:18:42;;;;;;;8.85;4.63;;;;;;;15.09;100.00;98548.94;5102329;28;20113;-57
2022/10/01 08:21:27;;;;;;;9.02;6.85;;;;;;;15.19;100.00;98550.75;5096030;28;20063;-58
2022/10/01 08:24:12;;;;;;;10.98;7.15;;;;;;;15.11;100.00;98544.34;5103158;28;20058;-59
2022/10/01 08:26:57;;;;;;;12.57;7.78;;;;;;;15.01;100.00;98540.91;5099375;28;20097;-56
2022/10/01 08:29:42;;;;;;;11.88;8.02;;;;;;;14.90;100.00;98537.41;5093592;28;20086;-57
2022/10/01 08:32:27;;;;;;;11.80;7.65;;;;;;;14.51;100.00;98543.47;5098066;28;20089;-59
2022/10/01 08:35:12;;;;;;;7.65;5.82;;;;;;;14.55;100.00;98551.94;5093938;28;20052;-58
2022/10/01 08:38:01;;;;;;;6.15;4.57;;;;;;;14.87;100.00;98536.84;5099797;28;20046;-57
2022/10/01 08:40:50;;;;;;;11.93;7.03;;;;;;;15.31;99.17;98543.50;5092816;28;20059;-55
2022/10/01 08:43:39;;;;;;;7.93;5.57;;;;;;;15.76;93.40;98545.50;5098582;28;20039;-58
2022/10/01 08:46:29;;;;;;;12.30;7.03;;;;;;;16.59;90.33;98539.53;5092920;28;20050;-56
2022/10/01 08:49:30;;;;;;;8.05;5.68;;;;;;;17.01;88.25;98537.28;5098229;28;20078;-59
2022/10/01 08:52:25;;;;;;;7.93;5.60;;;;;;;17.16;84.97;98537.56;5099152;28;20048;-59
2022/10/01 08:55:16;;;;;;;9.05;5.15;;;;;;;16.73;86.63;98554.88;5100244;28;20035;-57
2022/10/01 08:58:02;;;;;;;;;;;;;;;16.49;88.87;98556.28;5094770;28;20119;-57
2022/10/01 09:00:48;;;;;;;6.63;4.85;;;;;;;15.75;89.66;98543.81;5097141;27;20290;-58
2022/10/01 09:03:32;;;;;;;7.38;4.55;;;;;;;15.49;91.55;98547.06;5099352;28;20036;-56
2022/10/01 09:06:25;;;;;;;6.53;4.32;;;;;;;15.52;89.10;98545.97;5096585;28;20555;-56
2022/10/01 09:09:19;;;;;;;5.07;4.22;;;;;;;15.30;91.62;98547.09;5095717;28;20122;-57
2022/10/01 09:12:30;;;;;;;7.65;4.63;;;;;;;15.27;94.30;98553.50;5102716;28;20092;-56
2022/10/01 09:15:35;;;;;;;7.22;5.05;;;;;;;14.65;95.37;98552.78;5102396;28;20065;-57
2022/10/01 09:18:21;;;;;;;8.00;5.38;;;;;;;14.66;97.20;98546.53;5092893;28;20364;-57
2022/10/01 09:21:23;;;;;;;6.10;4.40;;;;;;;14.66;96.67;98558.88;5097018;28;20127;-60
2022/10/01 09:24:15;;;;;;;7.40;4.63;;;;;;;14.56;95.34;98556.22;5095297;28;20070;-57
2022/10/01 09:27:01;;;;;;;6.47;4.70;;;;;;;14.48;96.71;98564.81;5096296;28;20115;-57
2022/10/01 09:30:01;;;;;;;6.00;4.03;;;;;;;14.57;98.45;98560.56;5101554;28;20708;-58
2022/10/01 09:32:57;;;;;;;5.03;3.40;;;;;;;14.65;98.38;98559.84;5090054;28;20135;-57
2022/10/01 09:35:47;;;;;;;6.72;5.18;;;;;;;14.57;99.49;98554.44;5091755;28;20036;-59
2022/10/01 09:38:44;;;;;;;6.93;5.22;;;;;;;14.53;98.46;98545.97;5092579;28;20142;-58
2022/10/01 09:41:30;;;;;;;7.18;4.97;;;;;;;14.24;100.00;98550.22;5091879;28;20497;-59
2022/10/01 09:44:17;;;;;;;10.35;5.60;;;;;;;14.21;100.00;98539.94;5090032;28;20077;-59
2022/10/01 09:47:02;;;;;;;6.75;4.95;;;;;;;14.27;100.00;98544.66;5094996;28;20044;-59
2022/10/01 09:49:47;;;;;;;6.45;4.82;;;;;;;14.33;100.00;98540.66;5099259;28;20043;-58
2022/10/01 09:52:37;;;;;;;7.47;4.80;;;;;;;14.36;100.00;98548.28;5097732;28;20040;-58
2022/10/01 09:55:41;;;;;;;6.07;4.57;;;;;;;14.50;100.00;98549.72;5086643;28;20126;-58
2022/10/01 09:58:27;;;;;;;6.43;4.20;;;;;;;14.57;100.00;98531.56;5093257;28;20126;-57
2022/10/01 10:01:37;;;;;;;6.28;4.78;;;;;;;14.57;99.03;98525.44;5093472;28;20120;-59
2022/10/01 10:04:25;;;;;;;6.30;4.85;;;;;;;14.50;100.00;98522.50;5100459;28;20474;-57
2022/10/01 10:07:16;;;;;;;6.68;3.97;;;;;;;14.47;98.89;98522.78;5099627;28;20464;-59
2022/10/01 10:10:18;;;;;;;5.25;3.92;;;;;;;14.37;100.00;98528.03;5099110;28;20483;-58
2022/10/01 10:13:23;;;;;;;4.65;3.67;;;;;;;14.35;100.00;98530.81;5089200;28;20039;-58
2022/10/01 10:16:13;;;;;;;5.95;3.97;;;;;;;14.39;99.36;98526.13;5091630;28;20052;-58
2022/10/01 10:19:02;;;;;;;7.60;4.60;;;;;;;14.55;98.08;98520.31;5105561;28;20410;-58
2022/10/01 10:21:56;;;;;;;5.00;3.65;;;;;;;14.66;98.53;98525.44;5103661;28;20067;-58
2022/10/01 10:24:40;;;;;;;6.57;4.80;;;;;;;14.71;97.08;98519.75;5095035;28;20460;-57
2022/10/01 10:27:28;;;;;;;7.57;5.43;;;;;;;14.63;97.81;98512.56;5094547;28;20127;-56
2022/10/01 10:30:16;;;;;;;5.10;3.75;;;;;;;14.55;98.53;98520.31;5104790;28;20123;-56
2022/10/01 10:33:04;;;;;;;6.20;4.43;;;;;;;14.65;99.67;98518.53;5102467;28;20490;-57
2022/10/01 10:35:58;;;;;;;7.72;3.50;;;;;;;14.66;100.00;98514.06;5096252;28;20136;-58
2022/10/01 10:38:48;;;;;;;9.40;6.53;;;;;;;14.64;100.00;98508.09;5095631;28;20038;-58
2022/10/01 10:41:33;;;;;;;5.45;3.53;;;;;;;14.72;99.09;98495.06;5092871;28;20142;-59
2022/10/01 10:44:23;;;;;;;5.38;4.25;;;;;;;14.72;98.41;98496.88;5104920;28;20142;-60
2022/10/01 10:47:13;;;;;;;6.20;3.95;;;;;;;14.56;98.90;98482.44;5096043;28;20036;-57
2022/10/01 10:50:04;;;;;;;5.70;3.80;;;;;;;14.61;98.44;98488.13;5102645;28;20044;-59
2022/10/01 10:52:49;;;;;;;;;;;;;;;14.61;98.98;98492.56;5109259;28;20063;-57
2022/10/01 10:55:33;;;;;;;6.18;3.50;;;;;;;14.72;98.79;98486.34;5096273;28;20412;-57
2022/10/01 10:58:18;;;;;;;6.50;3.75;;;;;;;14.86;98.56;98477.19;5097416;28;20036;-56
2022/10/01 11:01:12;;;;;;;7.00;4.90;;;;;;;14.85;97.32;98470.25;5097687;28;20036;-56
2022/10/01 11:03:59;;;;;;;10.52;6.32;;;;;;;14.94;97.02;98469.41;5111697;28;20050;-58
2022/10/01 11:07:00;;;;;;;6.55;4.32;;;;;;;15.21;96.08;98465.19;5105104;28;20379;-56
2022/10/01 11:10:00;;;;;;;7.43;5.25;;;;;;;15.36;94.91;98470.00;5103170;28;20043;-57
2022/10/01 11:13:31;;;;;;;8.93;5.68;;;;;;;15.41;94.63;98472.25;5094564;28;20078;-58
2022/10/01 11:16:37;;;;;;;4.95;3.47;;;;;;;15.72;92.94;98464.88;5098413;28;20177;-56
2022/10/01 11:19:28;;;;;;;5.90;4.38;;;;;;;15.52;92.52;98464.97;5109581;28;20043;-57
2022/10/01 11:22:40;;;;;;;8.80;5.30;;;;;;;15.71;92.16;98457.09;5103257;28;20044;-58
2022/10/01 11:25:24;;;;;;;5.80;4.22;;;;;;;15.54;90.91;98464.00;5087077;28;20482;-56
2022/10/01 11:28:18;;;;;;;8.43;5.13;;;;;;;15.38;91.01;98457.50;5104069;28;20123;-56
2022/10/01 11:31:15;;;;;;;6.00;3.88;;;;;;;15.26;92.63;98455.03;5098781;28;20044;-58
2022/10/01 11:34:11;;;;;;;7.03;4.63;;;;;;;15.27;94.01;98455.88;5080625;28;20528;-59
2022/10/01 11:37:09;;;;;;;7.80;4.15;;;;;;;15.55;91.63;98447.16;5101863;28;20171;-60
2022/10/01 11:40:00;;;;;;;6.32;4.65;;;;;;;15.86;89.92;98439.78;5085058;28;20460;-57
2022/10/01 11:42:48;;;;;;;8.13;5.53;;;;;;;15.82;90.92;98443.72;5104137;28;20451;-57
2022/10/01 11:45:41;;;;;;;5.80;4.00;;;;;;;15.84;91.07;98441.75;5100823;28;20481;-58
2022/10/01 11:48:33;;;;;;;7.15;4.70;;;;;;;15.64;90.72;98439.22;5094745;28;20050;-58
2022/10/01 11:51:28;;;;;;;6.03;4.13;;;;;;;15.70;91.15;98426.41;5096577;28;20046;-57
2022/10/01 11:54:19;;;;;;;7.28;4.75;;;;;;;15.67;89.33;98430.16;5108867;28;20123;-60
2022/10/01 12:00:14;;;;;;;5.53;4.00;;;;;;;15.71;88.92;98418.34;5094116;28;20031;-57
2022/10/01 12:03:03;;;;;;;4.57;3.53;;;;;;;15.70;87.31;98416.66;5094477;28;20050;-57
2022/10/01 12:05:49;;;;;;;5.60;3.90;;;;;;;15.64;88.28;98422.53;5093505;28;20044;-57
2022/10/01 12:08:37;;;;;;;4.78;3.53;;;;;;;15.84;88.67;98419.78;5094710;28;20131;-56
2022/10/01 12:11:39;;;;;;;6.45;3.85;;;;;;;16.10;84.16;98412.03;5110323;27;20043;-59
2022/10/01 12:14:34;;;;;;;5.75;4.13;;;;;;;16.20;84.54;98405.81;5110693;28;20064;-57
2022/10/01 12:17:30;;;;;;;4.85;2.97;;;;;;;16.25;85.25;98399.09;5095977;28;20044;-57
2022/10/01 12:20:40;;;;;;;6.70;4.30;;;;;;;16.32;83.34;98398.53;5107268;28;20443;-57
2022/10/01 12:23:49;;;;;;;6.10;4.22;;;;;;;16.42;83.91;98383.38;5104132;28;20035;-57
2022/10/01 12:27:01;;;;;;;4.38;3.13;;;;;;;16.54;80.99;98381.34;5094056;28;20100;-57
2022/10/01 12:30:09;;;;;;;3.45;2.28;;;;;;;16.77;77.96;98388.78;5101616;28;20065;-57
2022/10/01 12:33:15;;;;;;;6.70;3.80;;;;;;;16.57;79.94;98382.84;5092004;28;20184;-54
2022/10/01 12:36:05;;;;;;;4.82;3.03;;;;;;;16.44;79.99;98383.22;5106961;28;20043;-60
2022/10/01 12:38:56;;;;;;;4.80;2.95;;;;;;;16.39;82.59;98383.69;5091733;28;20445;-58
2022/10/01 12:41:49;;;;;;;3.47;2.72;;;;;;;16.36;83.30;98376.91;5091001;28;20117;-58
2022/10/01 12:45:05;;;;;;;3.78;2.72;;;;;;;16.32;80.98;98372.91;5101564;28;20036;-58
2022/10/01 12:48:14;;;;;;;4.00;3.00;;;;;;;16.49;81.30;98368.59;5091750;28;20532;-58
2022/10/01 12:51:31;;;;;;;3.50;2.72;;;;;;;16.41;81.63;98372.97;5100608;28;20066;-57
2022/10/01 12:54:30;;;;;;;5.70;3.53;;;;;;;16.40;82.03;98368.69;5093092;28;20043;-57
2022/10/01 12:57:21;;;;;;;6.10;3.67;;;;;;;16.37;81.21;98360.06;5094949;28;20094;-56
2022/10/01 13:00:09;;;;;;;4.05;2.65;;;;;;;16.44;81.03;98359.44;5093425;28;20040;-60
2022/10/01 13:03:12;;;;;;;3.83;2.78;;;;;;;16.32;79.86;98358.88;5098036;28;20036;-57
2022/10/01 13:06:19;;;;;;;4.57;3.38;;;;;;;16.40;80.68;98358.09;5103415;28;20055;-58
2022/10/01 13:09:31;;;;;;;5.15;2.65;;;;;;;16.42;79.98;98350.88;5092277;28;20533;-57
2022/10/01 13:12:25;;;;;;;4.55;2.78;;;;;;;16.25;81.22;98354.16;5093301;28;20051;-58
2022/10/01 13:15:21;;;;;;;3.00;2.40;;;;;;;16.31;81.09;98346.63;5097892;28;20067;-58
2022/10/01 13:18:17;;;;;;;4.55;2.63;;;;;;;16.18;81.34;98344.38;5105775;27;20123;-57